sensor_id;sensor_type;location;lat;lon;timestamp;P1;durP1;ratioP1;P2;durP2;ratioP2
24357;SDS011;13668;52.154;5.580;2023-02-27T00:01:23;10.57;;;5.10;;
24357;SDS011;13668;52.154;5.580;2023-02-27T00:03:49;7.70;;;4.07;;
24357;SDS011;13668;52.154;5.580;2023-02-27T00:06:15;11.02;;;5.25;;
24357;SDS011;13668;52.154;5.580;2023-02-27T00:08:42;14.52;;;5.80;;
24357;SDS011;13668;52.154;5.580;2023-02-27T00:11:08;9.35;;;4.80;;
24357;SDS011;13668;52.154;5.580;2023-02-27T00:13:34;10.07;;;6.22;;
24357;SDS011;13668;52.154;5.580;2023-02-27T00:16:00;9.40;;;5.03;;
24357;SDS011;13668;52.154;5.580;2023-02-27T00:18:26;10.55;;;4.72;;
24357;SDS011;13668;52.154;5.580;2023-02-27T00:20:52;11.48;;;4.72;;
24357;SDS011;13668;52.154;5.580;2023-02-27T00:23:18;8.95;;;4.80;;
24357;SDS011;13668;52.154;5.580;2023-02-27T00:25:44;8.32;;;4.35;;
24357;SDS011;13668;52.154;5.580;2023-02-27T00:28:10;6.18;;;3.85;;
24357;SDS011;13668;52.154;5.580;2023-02-27T00:30:36;9.10;;;4.60;;
24357;SDS011;13668;52.154;5.580;2023-02-27T00:33:02;6.80;;;4.10;;
24357;SDS011;13668;52.154;5.580;2023-02-27T00:35:28;6.32;;;4.15;;
24357;SDS011;13668;52.154;5.580;2023-02-27T00:37:54;8.77;;;4.65;;
24357;SDS011;13668;52.154;5.580;2023-02-27T00:40:20;6.65;;;4.18;;
24357;SDS011;13668;52.154;5.580;2023-02-27T00:42:49;9.57;;;4.78;;
24357;SDS011;13668;52.154;5.580;2023-02-27T00:45:15;5.57;;;3.95;;
24357;SDS011;13668;52.154;5.580;2023-02-27T00:47:41;8.45;;;4.20;;
24357;SDS011;13668;52.154;5.580;2023-02-27T00:50:07;6.63;;;4.20;;
24357;SDS011;13668;52.154;5.580;2023-02-27T00:52:33;7.15;;;3.80;;
24357;SDS011;13668;52.154;5.580;2023-02-27T00:54:59;8.10;;;4.35;;
24357;SDS011;13668;52.154;5.580;2023-02-27T00:57:25;9.82;;;4.65;;
24357;SDS011;13668;52.154;5.580;2023-02-27T00:59:51;10.93;;;4.43;;
24357;SDS011;13668;52.154;5.580;2023-02-27T01:02:17;8.32;;;4.32;;
24357;SDS011;13668;52.154;5.580;2023-02-27T01:04:43;7.93;;;4.03;;
24357;SDS011;13668;52.154;5.580;2023-02-27T01:07:09;10.18;;;4.30;;
24357;SDS011;13668;52.154;5.580;2023-02-27T01:09:35;6.90;;;3.30;;
24357;SDS011;13668;52.154;5.580;2023-02-27T01:12:01;7.72;;;4.13;;
24357;SDS011;13668;52.154;5.580;2023-02-27T01:14:27;4.30;;;2.95;;
24357;SDS011;13668;52.154;5.580;2023-02-27T01:16:53;7.22;;;3.58;;
24357;SDS011;13668;52.154;5.580;2023-02-27T01:19:19;7.20;;;3.38;;
24357;SDS011;13668;52.154;5.580;2023-02-27T01:21:45;4.45;;;3.30;;
24357;SDS011;13668;52.154;5.580;2023-02-27T01:24:11;7.95;;;4.28;;
24357;SDS011;13668;52.154;5.580;2023-02-27T01:26:37;7.10;;;3.58;;
24357;SDS011;13668;52.154;5.580;2023-02-27T01:29:04;3.60;;;3.30;;
24357;SDS011;13668;52.154;5.580;2023-02-27T01:31:30;6.13;;;2.95;;
24357;SDS011;13668;52.154;5.580;2023-02-27T01:33:56;8.07;;;3.78;;
24357;SDS011;13668;52.154;5.580;2023-02-27T01:36:22;8.85;;;3.30;;
24357;SDS011;13668;52.154;5.580;2023-02-27T01:38:48;3.67;;;3.03;;
24357;SDS011;13668;52.154;5.580;2023-02-27T01:41:14;6.18;;;3.42;;
24357;SDS011;13668;52.154;5.580;2023-02-27T01:46:18;6.68;;;3.20;;
24357;SDS011;13668;52.154;5.580;2023-02-27T01:48:44;4.50;;;3.00;;
24357;SDS011;13668;52.154;5.580;2023-02-27T01:51:15;7.07;;;4.03;;
24357;SDS011;13668;52.154;5.580;2023-02-27T01:53:43;4.15;;;3.28;;
24357;SDS011;13668;52.154;5.580;2023-02-27T01:56:11;7.68;;;3.20;;
24357;SDS011;13668;52.154;5.580;2023-02-27T01:58:38;5.65;;;3.55;;
24357;SDS011;13668;52.154;5.580;2023-02-27T02:01:05;5.57;;;2.75;;
24357;SDS011;13668;52.154;5.580;2023-02-27T02:03:48;8.25;;;3.63;;
24357;SDS011;13668;52.154;5.580;2023-02-27T02:06:15;5.93;;;3.20;;
24357;SDS011;13668;52.154;5.580;2023-02-27T02:08:43;5.43;;;3.38;;
24357;SDS011;13668;52.154;5.580;2023-02-27T02:11:11;18.25;;;3.67;;
24357;SDS011;13668;52.154;5.580;2023-02-27T02:13:38;7.00;;;3.72;;
24357;SDS011;13668;52.154;5.580;2023-02-27T02:21:22;4.72;;;2.90;;
24357;SDS011;13668;52.154;5.580;2023-02-27T02:26:26;5.03;;;3.25;;
24357;SDS011;13668;52.154;5.580;2023-02-27T02:29:15;5.20;;;3.58;;
24357;SDS011;13668;52.154;5.580;2023-02-27T02:31:51;4.30;;;3.10;;
24357;SDS011;13668;52.154;5.580;2023-02-27T02:39:34;4.53;;;3.10;;
24357;SDS011;13668;52.154;5.580;2023-02-27T02:45:24;4.70;;;3.35;;
24357;SDS011;13668;52.154;5.580;2023-02-27T02:52:50;7.10;;;3.45;;
24357;SDS011;13668;52.154;5.580;2023-02-27T02:55:26;8.35;;;3.65;;
24357;SDS011;13668;52.154;5.580;2023-02-27T02:57:55;4.63;;;3.50;;
24357;SDS011;13668;52.154;5.580;2023-02-27T03:00:26;5.90;;;3.17;;
24357;SDS011;13668;52.154;5.580;2023-02-27T03:02:54;6.05;;;3.00;;
24357;SDS011;13668;52.154;5.580;2023-02-27T03:05:23;6.60;;;3.45;;
24357;SDS011;13668;52.154;5.580;2023-02-27T03:08:01;4.90;;;3.33;;
24357;SDS011;13668;52.154;5.580;2023-02-27T03:10:29;7.93;;;3.65;;
24357;SDS011;13668;52.154;5.580;2023-02-27T03:13:01;7.30;;;3.58;;
24357;SDS011;13668;52.154;5.580;2023-02-27T03:15:31;4.82;;;3.20;;
24357;SDS011;13668;52.154;5.580;2023-02-27T03:18:02;5.82;;;4.03;;
24357;SDS011;13668;52.154;5.580;2023-02-27T03:20:30;5.03;;;3.13;;
24357;SDS011;13668;52.154;5.580;2023-02-27T03:22:58;6.43;;;3.20;;
24357;SDS011;13668;52.154;5.580;2023-02-27T03:25:26;4.35;;;3.28;;
24357;SDS011;13668;52.154;5.580;2023-02-27T03:27:57;7.22;;;3.38;;
24357;SDS011;13668;52.154;5.580;2023-02-27T03:30:33;5.88;;;3.17;;
24357;SDS011;13668;52.154;5.580;2023-02-27T03:33:20;6.18;;;3.50;;
24357;SDS011;13668;52.154;5.580;2023-02-27T03:36:50;7.70;;;3.08;;
24357;SDS011;13668;52.154;5.580;2023-02-27T03:38:50;8.88;;;3.55;;
24357;SDS011;13668;52.154;5.580;2023-02-27T03:41:27;6.80;;;3.13;;
24357;SDS011;13668;52.154;5.580;2023-02-27T03:46:21;7.25;;;2.90;;
24357;SDS011;13668;52.154;5.580;2023-02-27T03:48:48;5.65;;;3.75;;
24357;SDS011;13668;52.154;5.580;2023-02-27T03:51:16;4.93;;;2.85;;
24357;SDS011;13668;52.154;5.580;2023-02-27T03:56:35;3.80;;;2.65;;
24357;SDS011;13668;52.154;5.580;2023-02-27T03:59:03;5.32;;;3.00;;
24357;SDS011;13668;52.154;5.580;2023-02-27T04:01:29;3.22;;;2.67;;
24357;SDS011;13668;52.154;5.580;2023-02-27T04:04:00;5.20;;;2.40;;
24357;SDS011;13668;52.154;5.580;2023-02-27T04:06:27;5.07;;;2.38;;
24357;SDS011;13668;52.154;5.580;2023-02-27T04:14:38;3.40;;;2.45;;
24357;SDS011;13668;52.154;5.580;2023-02-27T04:27:27;6.85;;;2.60;;
24357;SDS011;13668;52.154;5.580;2023-02-27T04:29:57;6.72;;;2.63;;
24357;SDS011;13668;52.154;5.580;2023-02-27T04:32:29;6.80;;;2.60;;
24357;SDS011;13668;52.154;5.580;2023-02-27T04:34:58;6.65;;;2.72;;
24357;SDS011;13668;52.154;5.580;2023-02-27T04:37:36;4.97;;;2.60;;
24357;SDS011;13668;52.154;5.580;2023-02-27T04:40:09;3.05;;;2.00;;
24357;SDS011;13668;52.154;5.580;2023-02-27T04:42:37;4.68;;;2.20;;
24357;SDS011;13668;52.154;5.580;2023-02-27T04:45:05;4.70;;;2.35;;
24357;SDS011;13668;52.154;5.580;2023-02-27T04:47:36;3.95;;;2.00;;
24357;SDS011;13668;52.154;5.580;2023-02-27T04:50:15;5.15;;;2.67;;
24357;SDS011;13668;52.154;5.580;2023-02-27T04:52:44;6.10;;;2.72;;
24357;SDS011;13668;52.154;5.580;2023-02-27T04:57:46;3.83;;;2.33;;
24357;SDS011;13668;52.154;5.580;2023-02-27T05:00:13;6.25;;;2.13;;
24357;SDS011;13668;52.154;5.580;2023-02-27T05:02:42;4.05;;;2.35;;
24357;SDS011;13668;52.154;5.580;2023-02-27T05:05:10;6.57;;;2.88;;
24357;SDS011;13668;52.154;5.580;2023-02-27T05:07:39;5.03;;;2.50;;
24357;SDS011;13668;52.154;5.580;2023-02-27T05:10:07;5.03;;;2.67;;
24357;SDS011;13668;52.154;5.580;2023-02-27T05:12:37;3.55;;;2.60;;
24357;SDS011;13668;52.154;5.580;2023-02-27T05:15:15;3.65;;;2.53;;
24357;SDS011;13668;52.154;5.580;2023-02-27T05:17:48;4.43;;;3.03;;
24357;SDS011;13668;52.154;5.580;2023-02-27T05:20:17;4.22;;;2.33;;
24357;SDS011;13668;52.154;5.580;2023-02-27T05:22:44;3.88;;;2.65;;
24357;SDS011;13668;52.154;5.580;2023-02-27T05:27:38;6.88;;;3.10;;
24357;SDS011;13668;52.154;5.580;2023-02-27T05:30:11;7.45;;;4.25;;
24357;SDS011;13668;52.154;5.580;2023-02-27T05:32:44;5.68;;;3.53;;
24357;SDS011;13668;52.154;5.580;2023-02-27T05:37:45;5.40;;;3.50;;
24357;SDS011;13668;52.154;5.580;2023-02-27T05:40:14;8.77;;;4.85;;
24357;SDS011;13668;52.154;5.580;2023-02-27T05:42:46;8.10;;;5.22;;
24357;SDS011;13668;52.154;5.580;2023-02-27T05:45:18;9.80;;;5.25;;
24357;SDS011;13668;52.154;5.580;2023-02-27T05:47:47;9.63;;;5.13;;
24357;SDS011;13668;52.154;5.580;2023-02-27T05:50:20;8.23;;;5.97;;
24357;SDS011;13668;52.154;5.580;2023-02-27T05:52:48;11.32;;;6.13;;
24357;SDS011;13668;52.154;5.580;2023-02-27T05:55:17;12.60;;;5.72;;
24357;SDS011;13668;52.154;5.580;2023-02-27T06:02:38;9.45;;;6.05;;
24357;SDS011;13668;52.154;5.580;2023-02-27T06:05:04;16.48;;;8.23;;
24357;SDS011;13668;52.154;5.580;2023-02-27T06:07:31;13.38;;;7.22;;
24357;SDS011;13668;52.154;5.580;2023-02-27T06:09:57;12.60;;;6.22;;
24357;SDS011;13668;52.154;5.580;2023-02-27T06:12:23;13.32;;;7.50;;
24357;SDS011;13668;52.154;5.580;2023-02-27T06:14:49;8.05;;;6.25;;
24357;SDS011;13668;52.154;5.580;2023-02-27T06:17:15;12.48;;;6.30;;
24357;SDS011;13668;52.154;5.580;2023-02-27T06:19:41;11.57;;;6.18;;
24357;SDS011;13668;52.154;5.580;2023-02-27T06:22:08;10.48;;;6.25;;
24357;SDS011;13668;52.154;5.580;2023-02-27T06:24:34;12.27;;;5.90;;
24357;SDS011;13668;52.154;5.580;2023-02-27T06:27:00;9.38;;;4.93;;
24357;SDS011;13668;52.154;5.580;2023-02-27T06:29:26;6.10;;;4.80;;
24357;SDS011;13668;52.154;5.580;2023-02-27T06:31:52;6.82;;;4.65;;
24357;SDS011;13668;52.154;5.580;2023-02-27T06:34:17;8.63;;;4.10;;
24357;SDS011;13668;52.154;5.580;2023-02-27T06:36:43;8.43;;;4.72;;
24357;SDS011;13668;52.154;5.580;2023-02-27T06:39:09;10.30;;;4.20;;
24357;SDS011;13668;52.154;5.580;2023-02-27T06:41:36;11.40;;;4.63;;
24357;SDS011;13668;52.154;5.580;2023-02-27T06:44:02;10.18;;;5.03;;
24357;SDS011;13668;52.154;5.580;2023-02-27T06:46:28;8.10;;;4.97;;
24357;SDS011;13668;52.154;5.580;2023-02-27T06:48:54;8.13;;;4.25;;
24357;SDS011;13668;52.154;5.580;2023-02-27T06:51:20;10.88;;;4.43;;
24357;SDS011;13668;52.154;5.580;2023-02-27T06:53:46;7.60;;;4.95;;
24357;SDS011;13668;52.154;5.580;2023-02-27T06:56:12;8.00;;;4.28;;
24357;SDS011;13668;52.154;5.580;2023-02-27T06:58:38;8.55;;;4.53;;
24357;SDS011;13668;52.154;5.580;2023-02-27T07:01:04;10.43;;;3.83;;
24357;SDS011;13668;52.154;5.580;2023-02-27T07:03:30;10.05;;;3.80;;
24357;SDS011;13668;52.154;5.580;2023-02-27T07:05:56;7.85;;;4.13;;
24357;SDS011;13668;52.154;5.580;2023-02-27T07:08:23;10.13;;;4.30;;
24357;SDS011;13668;52.154;5.580;2023-02-27T07:10:49;5.45;;;3.95;;
24357;SDS011;13668;52.154;5.580;2023-02-27T07:13:15;9.33;;;4.30;;
24357;SDS011;13668;52.154;5.580;2023-02-27T07:15:41;10.73;;;4.32;;
24357;SDS011;13668;52.154;5.580;2023-02-27T07:18:08;9.25;;;4.53;;
24357;SDS011;13668;52.154;5.580;2023-02-27T07:20:34;8.30;;;4.47;;
24357;SDS011;13668;52.154;5.580;2023-02-27T07:23:01;9.38;;;4.57;;
24357;SDS011;13668;52.154;5.580;2023-02-27T07:25:27;9.43;;;4.05;;
24357;SDS011;13668;52.154;5.580;2023-02-27T07:27:53;7.35;;;4.15;;
24357;SDS011;13668;52.154;5.580;2023-02-27T07:30:19;7.70;;;4.18;;
24357;SDS011;13668;52.154;5.580;2023-02-27T07:32:45;8.20;;;4.93;;
24357;SDS011;13668;52.154;5.580;2023-02-27T07:35:11;8.48;;;4.60;;
24357;SDS011;13668;52.154;5.580;2023-02-27T07:37:37;8.55;;;4.20;;
24357;SDS011;13668;52.154;5.580;2023-02-27T07:40:04;8.10;;;3.78;;
24357;SDS011;13668;52.154;5.580;2023-02-27T07:42:31;5.30;;;3.95;;
24357;SDS011;13668;52.154;5.580;2023-02-27T07:44:57;8.45;;;4.32;;
24357;SDS011;13668;52.154;5.580;2023-02-27T07:47:27;11.10;;;4.68;;
24357;SDS011;13668;52.154;5.580;2023-02-27T07:49:54;9.65;;;4.18;;
24357;SDS011;13668;52.154;5.580;2023-02-27T07:52:20;7.80;;;4.18;;
24357;SDS011;13668;52.154;5.580;2023-02-27T07:54:46;8.95;;;3.47;;
24357;SDS011;13668;52.154;5.580;2023-02-27T07:57:12;8.55;;;3.50;;
24357;SDS011;13668;52.154;5.580;2023-02-27T07:59:38;7.32;;;3.20;;
24357;SDS011;13668;52.154;5.580;2023-02-27T08:02:04;5.03;;;3.30;;
24357;SDS011;13668;52.154;5.580;2023-02-27T08:04:31;6.60;;;3.38;;
24357;SDS011;13668;52.154;5.580;2023-02-27T08:06:57;6.13;;;3.30;;
24357;SDS011;13668;52.154;5.580;2023-02-27T08:09:23;5.40;;;3.40;;
24357;SDS011;13668;52.154;5.580;2023-02-27T08:11:49;8.35;;;3.55;;
24357;SDS011;13668;52.154;5.580;2023-02-27T08:14:15;13.98;;;5.78;;
24357;SDS011;13668;52.154;5.580;2023-02-27T08:16:41;15.65;;;6.07;;
24357;SDS011;13668;52.154;5.580;2023-02-27T08:19:07;14.70;;;4.97;;
24357;SDS011;13668;52.154;5.580;2023-02-27T08:21:33;9.40;;;4.10;;
24357;SDS011;13668;52.154;5.580;2023-02-27T08:23:59;8.18;;;4.60;;
24357;SDS011;13668;52.154;5.580;2023-02-27T08:26:25;6.10;;;3.70;;
24357;SDS011;13668;52.154;5.580;2023-02-27T08:28:51;5.65;;;3.20;;
24357;SDS011;13668;52.154;5.580;2023-02-27T08:31:17;5.93;;;3.00;;
24357;SDS011;13668;52.154;5.580;2023-02-27T08:33:43;3.15;;;2.17;;
24357;SDS011;13668;52.154;5.580;2023-02-27T08:36:09;4.88;;;2.53;;
24357;SDS011;13668;52.154;5.580;2023-02-27T08:38:35;8.63;;;2.95;;
24357;SDS011;13668;52.154;5.580;2023-02-27T08:41:01;6.45;;;3.03;;
24357;SDS011;13668;52.154;5.580;2023-02-27T08:43:27;5.68;;;2.50;;
24357;SDS011;13668;52.154;5.580;2023-02-27T08:45:53;4.45;;;2.30;;
24357;SDS011;13668;52.154;5.580;2023-02-27T08:48:18;3.80;;;1.90;;
24357;SDS011;13668;52.154;5.580;2023-02-27T08:50:45;4.72;;;2.28;;
24357;SDS011;13668;52.154;5.580;2023-02-27T08:53:11;4.40;;;2.45;;
24357;SDS011;13668;52.154;5.580;2023-02-27T08:55:37;6.22;;;2.58;;
24357;SDS011;13668;52.154;5.580;2023-02-27T08:58:03;9.32;;;2.72;;
24357;SDS011;13668;52.154;5.580;2023-02-27T09:00:29;4.72;;;2.80;;
24357;SDS011;13668;52.154;5.580;2023-02-27T09:02:56;7.05;;;2.78;;
24357;SDS011;13668;52.154;5.580;2023-02-27T09:05:22;5.63;;;2.95;;
24357;SDS011;13668;52.154;5.580;2023-02-27T09:07:48;4.47;;;2.42;;
24357;SDS011;13668;52.154;5.580;2023-02-27T09:10:14;6.90;;;2.53;;
24357;SDS011;13668;52.154;5.580;2023-02-27T09:12:40;4.00;;;2.05;;
24357;SDS011;13668;52.154;5.580;2023-02-27T09:15:07;3.10;;;1.50;;
24357;SDS011;13668;52.154;5.580;2023-02-27T09:17:33;2.88;;;1.63;;
24357;SDS011;13668;52.154;5.580;2023-02-27T09:19:59;6.95;;;2.05;;
24357;SDS011;13668;52.154;5.580;2023-02-27T09:22:25;4.50;;;2.00;;
24357;SDS011;13668;52.154;5.580;2023-02-27T09:24:51;5.28;;;2.35;;
24357;SDS011;13668;52.154;5.580;2023-02-27T09:27:17;3.35;;;1.58;;
24357;SDS011;13668;52.154;5.580;2023-02-27T09:29:43;2.97;;;1.40;;
24357;SDS011;13668;52.154;5.580;2023-02-27T09:32:09;1.85;;;1.00;;
24357;SDS011;13668;52.154;5.580;2023-02-27T09:34:35;6.25;;;1.67;;
24357;SDS011;13668;52.154;5.580;2023-02-27T09:37:01;3.22;;;0.93;;
24357;SDS011;13668;52.154;5.580;2023-02-27T09:39:27;5.70;;;1.00;;
24357;SDS011;13668;52.154;5.580;2023-02-27T09:42:02;4.40;;;1.08;;
24357;SDS011;13668;52.154;5.580;2023-02-27T09:44:39;4.65;;;0.98;;
24357;SDS011;13668;52.154;5.580;2023-02-27T09:47:10;5.80;;;1.00;;
24357;SDS011;13668;52.154;5.580;2023-02-27T09:49:52;3.45;;;1.30;;
24357;SDS011;13668;52.154;5.580;2023-02-27T09:52:20;1.92;;;1.20;;
24357;SDS011;13668;52.154;5.580;2023-02-27T09:54:46;2.08;;;0.70;;
24357;SDS011;13668;52.154;5.580;2023-02-27T09:57:23;2.15;;;0.82;;
24357;SDS011;13668;52.154;5.580;2023-02-27T09:59:54;3.08;;;0.70;;
24357;SDS011;13668;52.154;5.580;2023-02-27T10:12:30;2.58;;;0.90;;
24357;SDS011;13668;52.154;5.580;2023-02-27T10:15:12;5.25;;;0.90;;
24357;SDS011;13668;52.154;5.580;2023-02-27T10:17:43;2.35;;;0.80;;
24357;SDS011;13668;52.154;5.580;2023-02-27T10:20:23;1.42;;;0.77;;
24357;SDS011;13668;52.154;5.580;2023-02-27T10:22:51;3.00;;;0.82;;
24357;SDS011;13668;52.154;5.580;2023-02-27T10:25:18;3.42;;;1.00;;
24357;SDS011;13668;52.154;5.580;2023-02-27T10:27:45;2.75;;;0.80;;
24357;SDS011;13668;52.154;5.580;2023-02-27T10:30:24;3.35;;;0.90;;
24357;SDS011;13668;52.154;5.580;2023-02-27T10:32:53;2.10;;;0.85;;
24357;SDS011;13668;52.154;5.580;2023-02-27T10:35:27;2.70;;;0.80;;
24357;SDS011;13668;52.154;5.580;2023-02-27T10:38:05;1.27;;;0.60;;
24357;SDS011;13668;52.154;5.580;2023-02-27T10:40:34;2.50;;;0.60;;
24357;SDS011;13668;52.154;5.580;2023-02-27T10:43:01;2.25;;;0.90;;
24357;SDS011;13668;52.154;5.580;2023-02-27T10:45:27;1.17;;;0.45;;
24357;SDS011;13668;52.154;5.580;2023-02-27T10:47:54;2.60;;;0.65;;
24357;SDS011;13668;52.154;5.580;2023-02-27T10:52:47;1.95;;;0.75;;
24357;SDS011;13668;52.154;5.580;2023-02-27T10:55:17;2.05;;;0.88;;
24357;SDS011;13668;52.154;5.580;2023-02-27T10:57:44;3.65;;;0.68;;
24357;SDS011;13668;52.154;5.580;2023-02-27T11:02:52;3.42;;;0.77;;
24357;SDS011;13668;52.154;5.580;2023-02-27T11:05:28;1.00;;;0.65;;
24357;SDS011;13668;52.154;5.580;2023-02-27T11:07:56;1.27;;;0.63;;
24357;SDS011;13668;52.154;5.580;2023-02-27T11:10:26;1.95;;;0.30;;
24357;SDS011;13668;52.154;5.580;2023-02-27T11:13:02;2.78;;;0.70;;
24357;SDS011;13668;52.154;5.580;2023-02-27T11:15:36;0.65;;;0.47;;
24357;SDS011;13668;52.154;5.580;2023-02-27T11:20:47;0.70;;;0.40;;
24357;SDS011;13668;52.154;5.580;2023-02-27T11:23:16;1.25;;;0.32;;
24357;SDS011;13668;52.154;5.580;2023-02-27T11:25:43;0.40;;;0.30;;
24357;SDS011;13668;52.154;5.580;2023-02-27T11:30:44;1.50;;;0.40;;
24357;SDS011;13668;52.154;5.580;2023-02-27T11:33:19;1.23;;;0.60;;
24357;SDS011;13668;52.154;5.580;2023-02-27T11:35:49;0.85;;;0.40;;
24357;SDS011;13668;52.154;5.580;2023-02-27T11:38:17;1.25;;;0.50;;
24357;SDS011;13668;52.154;5.580;2023-02-27T11:40:47;2.83;;;0.43;;
24357;SDS011;13668;52.154;5.580;2023-02-27T11:45:50;3.13;;;0.60;;
24357;SDS011;13668;52.154;5.580;2023-02-27T11:48:22;1.90;;;0.40;;
24357;SDS011;13668;52.154;5.580;2023-02-27T11:55:53;3.17;;;0.47;;
24357;SDS011;13668;52.154;5.580;2023-02-27T11:58:22;1.92;;;0.55;;
24357;SDS011;13668;52.154;5.580;2023-02-27T12:00:54;2.92;;;0.60;;
24357;SDS011;13668;52.154;5.580;2023-02-27T12:06:04;1.13;;;0.50;;
24357;SDS011;13668;52.154;5.580;2023-02-27T12:08:37;2.22;;;0.70;;
24357;SDS011;13668;52.154;5.580;2023-02-27T12:11:28;0.85;;;0.40;;
24357;SDS011;13668;52.154;5.580;2023-02-27T12:14:04;1.55;;;0.63;;
24357;SDS011;13668;52.154;5.580;2023-02-27T12:16:39;1.90;;;0.40;;
24357;SDS011;13668;52.154;5.580;2023-02-27T12:21:42;1.52;;;0.45;;
24357;SDS011;13668;52.154;5.580;2023-02-27T12:26:49;1.95;;;0.60;;
24357;SDS011;13668;52.154;5.580;2023-02-27T12:31:50;1.45;;;0.98;;
24357;SDS011;13668;52.154;5.580;2023-02-27T12:34:24;1.17;;;0.60;;
24357;SDS011;13668;52.154;5.580;2023-02-27T12:36:53;1.35;;;1.08;;
24357;SDS011;13668;52.154;5.580;2023-02-27T12:39:20;4.28;;;1.10;;
24357;SDS011;13668;52.154;5.580;2023-02-27T12:47:07;3.97;;;0.90;;
24357;SDS011;13668;52.154;5.580;2023-02-27T12:52:16;0.52;;;0.52;;
24357;SDS011;13668;52.154;5.580;2023-02-27T13:02:37;2.38;;;0.88;;
24357;SDS011;13668;52.154;5.580;2023-02-27T13:05:25;1.92;;;0.93;;
24357;SDS011;13668;52.154;5.580;2023-02-27T13:10:21;1.50;;;0.80;;
24357;SDS011;13668;52.154;5.580;2023-02-27T13:12:50;4.45;;;1.15;;
24357;SDS011;13668;52.154;5.580;2023-02-27T13:21:24;2.25;;;0.98;;
24357;SDS011;13668;52.154;5.580;2023-02-27T13:24:07;1.63;;;0.90;;
24357;SDS011;13668;52.154;5.580;2023-02-27T13:26:47;2.47;;;0.80;;
24357;SDS011;13668;52.154;5.580;2023-02-27T13:29:16;3.53;;;1.00;;
24357;SDS011;13668;52.154;5.580;2023-02-27T13:32:27;1.90;;;1.60;;
24357;SDS011;13668;52.154;5.580;2023-02-27T13:34:33;1.85;;;0.85;;
24357;SDS011;13668;52.154;5.580;2023-02-27T13:37:01;5.35;;;1.65;;
24357;SDS011;13668;52.154;5.580;2023-02-27T13:40:01;2.00;;;0.85;;
24357;SDS011;13668;52.154;5.580;2023-02-27T13:45:44;6.60;;;1.27;;
24357;SDS011;13668;52.154;5.580;2023-02-27T13:47:47;1.77;;;0.90;;
24357;SDS011;13668;52.154;5.580;2023-02-27T13:52:42;1.55;;;0.70;;
24357;SDS011;13668;52.154;5.580;2023-02-27T13:58:11;2.17;;;0.88;;
24357;SDS011;13668;52.154;5.580;2023-02-27T14:00:40;2.60;;;0.70;;
24357;SDS011;13668;52.154;5.580;2023-02-27T14:03:18;1.25;;;1.15;;
24357;SDS011;13668;52.154;5.580;2023-02-27T14:05:45;2.75;;;0.80;;
24357;SDS011;13668;52.154;5.580;2023-02-27T14:10:38;3.10;;;0.82;;
24357;SDS011;13668;52.154;5.580;2023-02-27T14:13:55;2.22;;;0.90;;
24357;SDS011;13668;52.154;5.580;2023-02-27T14:15:53;1.63;;;1.00;;
24357;SDS011;13668;52.154;5.580;2023-02-27T14:24:11;2.30;;;1.10;;
24357;SDS011;13668;52.154;5.580;2023-02-27T14:26:38;1.67;;;0.93;;
24357;SDS011;13668;52.154;5.580;2023-02-27T14:29:04;2.65;;;0.90;;
24357;SDS011;13668;52.154;5.580;2023-02-27T14:31:31;3.50;;;1.27;;
24357;SDS011;13668;52.154;5.580;2023-02-27T14:33:59;6.65;;;1.10;;
24357;SDS011;13668;52.154;5.580;2023-02-27T14:37:12;1.95;;;1.02;;
24357;SDS011;13668;52.154;5.580;2023-02-27T14:39:20;2.83;;;1.00;;
24357;SDS011;13668;52.154;5.580;2023-02-27T14:41:53;1.75;;;0.70;;
24357;SDS011;13668;52.154;5.580;2023-02-27T14:44:24;2.28;;;0.82;;
24357;SDS011;13668;52.154;5.580;2023-02-27T14:46:52;0.82;;;0.63;;
24357;SDS011;13668;52.154;5.580;2023-02-27T14:49:19;4.45;;;1.00;;
24357;SDS011;13668;52.154;5.580;2023-02-27T14:51:46;2.58;;;1.05;;
24357;SDS011;13668;52.154;5.580;2023-02-27T14:56:41;1.63;;;0.80;;
24357;SDS011;13668;52.154;5.580;2023-02-27T14:59:19;1.85;;;1.00;;
24357;SDS011;13668;52.154;5.580;2023-02-27T15:01:45;2.17;;;1.00;;
24357;SDS011;13668;52.154;5.580;2023-02-27T15:04:17;2.67;;;0.82;;
24357;SDS011;13668;52.154;5.580;2023-02-27T15:06:51;0.90;;;0.63;;
24357;SDS011;13668;52.154;5.580;2023-02-27T15:09:22;2.67;;;1.00;;
24357;SDS011;13668;52.154;5.580;2023-02-27T15:11:50;4.78;;;1.02;;
24357;SDS011;13668;52.154;5.580;2023-02-27T15:14:18;2.78;;;1.00;;
24357;SDS011;13668;52.154;5.580;2023-02-27T15:16:45;3.70;;;1.60;;
24357;SDS011;13668;52.154;5.580;2023-02-27T15:21:39;2.17;;;1.10;;
24357;SDS011;13668;52.154;5.580;2023-02-27T15:24:05;2.53;;;0.88;;
24357;SDS011;13668;52.154;5.580;2023-02-27T15:26:34;2.72;;;0.90;;
24357;SDS011;13668;52.154;5.580;2023-02-27T15:29:01;2.15;;;1.25;;
24357;SDS011;13668;52.154;5.580;2023-02-27T15:31:28;1.63;;;1.08;;
24357;SDS011;13668;52.154;5.580;2023-02-27T15:33:56;5.85;;;1.25;;
24357;SDS011;13668;52.154;5.580;2023-02-27T15:36:24;1.85;;;0.93;;
24357;SDS011;13668;52.154;5.580;2023-02-27T15:41:35;2.30;;;1.10;;
24357;SDS011;13668;52.154;5.580;2023-02-27T15:44:01;2.88;;;1.33;;
24357;SDS011;13668;52.154;5.580;2023-02-27T15:46:28;1.52;;;1.10;;
24357;SDS011;13668;52.154;5.580;2023-02-27T15:48:54;2.25;;;0.98;;
24357;SDS011;13668;52.154;5.580;2023-02-27T15:51:20;3.35;;;1.17;;
24357;SDS011;13668;52.154;5.580;2023-02-27T15:53:47;1.55;;;1.20;;
24357;SDS011;13668;52.154;5.580;2023-02-27T15:56:13;2.50;;;1.20;;
24357;SDS011;13668;52.154;5.580;2023-02-27T15:58:46;2.50;;;1.38;;
24357;SDS011;13668;52.154;5.580;2023-02-27T16:01:20;1.50;;;1.10;;
24357;SDS011;13668;52.154;5.580;2023-02-27T16:03:48;3.30;;;1.20;;
24357;SDS011;13668;52.154;5.580;2023-02-27T16:06:15;0.95;;;0.93;;
24357;SDS011;13668;52.154;5.580;2023-02-27T16:08:44;1.90;;;0.98;;
24357;SDS011;13668;52.154;5.580;2023-02-27T16:11:21;1.45;;;0.90;;
24357;SDS011;13668;52.154;5.580;2023-02-27T16:13:47;1.00;;;0.93;;
24357;SDS011;13668;52.154;5.580;2023-02-27T16:21:12;1.52;;;0.63;;
24357;SDS011;13668;52.154;5.580;2023-02-27T16:23:38;1.23;;;0.80;;
24357;SDS011;13668;52.154;5.580;2023-02-27T16:31:29;2.72;;;1.00;;
24357;SDS011;13668;52.154;5.580;2023-02-27T16:33:57;3.42;;;1.00;;
24357;SDS011;13668;52.154;5.580;2023-02-27T16:36:28;2.70;;;1.13;;
24357;SDS011;13668;52.154;5.580;2023-02-27T16:38:54;0.77;;;0.77;;
24357;SDS011;13668;52.154;5.580;2023-02-27T16:41:21;1.73;;;1.25;;
24357;SDS011;13668;52.154;5.580;2023-02-27T16:43:48;2.53;;;0.93;;
24357;SDS011;13668;52.154;5.580;2023-02-27T16:46:15;3.33;;;1.00;;
24357;SDS011;13668;52.154;5.580;2023-02-27T16:48:51;1.17;;;0.90;;
24357;SDS011;13668;52.154;5.580;2023-02-27T16:51:18;1.52;;;1.00;;
24357;SDS011;13668;52.154;5.580;2023-02-27T16:53:46;1.30;;;0.82;;
24357;SDS011;13668;52.154;5.580;2023-02-27T16:56:12;2.42;;;1.17;;
24357;SDS011;13668;52.154;5.580;2023-02-27T16:58:38;1.42;;;1.13;;
24357;SDS011;13668;52.154;5.580;2023-02-27T17:01:04;1.27;;;0.98;;
24357;SDS011;13668;52.154;5.580;2023-02-27T17:03:30;1.60;;;0.98;;
24357;SDS011;13668;52.154;5.580;2023-02-27T17:05:57;1.67;;;1.00;;
24357;SDS011;13668;52.154;5.580;2023-02-27T17:08:23;1.25;;;1.00;;
24357;SDS011;13668;52.154;5.580;2023-02-27T17:10:49;2.33;;;1.10;;
24357;SDS011;13668;52.154;5.580;2023-02-27T17:13:17;2.13;;;1.00;;
24357;SDS011;13668;52.154;5.580;2023-02-27T17:15:43;1.30;;;1.10;;
24357;SDS011;13668;52.154;5.580;2023-02-27T17:18:09;3.17;;;1.08;;
24357;SDS011;13668;52.154;5.580;2023-02-27T17:20:35;2.33;;;1.30;;
24357;SDS011;13668;52.154;5.580;2023-02-27T17:23:01;1.55;;;0.90;;
24357;SDS011;13668;52.154;5.580;2023-02-27T17:25:27;0.95;;;0.90;;
24357;SDS011;13668;52.154;5.580;2023-02-27T17:27:53;1.08;;;0.98;;
24357;SDS011;13668;52.154;5.580;2023-02-27T17:30:19;1.60;;;1.00;;